sensor_id;sensor_type;location;lat;lon;timestamp;P1;durP1;ratioP1;P2;durP2;ratioP2
17340;SDS011;8788;49.930;8.660;2022-10-23T04:04:58;2.88;;;1.45;;
17340;SDS011;8788;49.930;8.660;2022-10-23T04:07:28;2.15;;;1.40;;
17340;SDS011;8788;49.930;8.660;2022-10-23T04:09:57;3.53;;;1.30;;
17340;SDS011;8788;49.930;8.660;2022-10-23T04:12:24;4.53;;;1.77;;
17340;SDS011;8788;49.930;8.660;2022-10-23T04:14:51;1.45;;;1.27;;
17340;SDS011;8788;49.930;8.660;2022-10-23T04:17:20;6.97;;;2.15;;
17340;SDS011;8788;49.930;8.660;2022-10-23T04:19:48;4.95;;;1.42;;
17340;SDS011;8788;49.930;8.660;2022-10-23T04:22:16;3.53;;;1.35;;
17340;SDS011;8788;49.930;8.660;2022-10-23T04:24:43;4.40;;;1.60;;
17340;SDS011;8788;49.930;8.660;2022-10-23T04:27:16;4.28;;;1.35;;
17340;SDS011;8788;49.930;8.660;2022-10-23T04:29:43;1.48;;;1.23;;
17340;SDS011;8788;49.930;8.660;2022-10-23T04:32:11;3.88;;;1.40;;
17340;SDS011;8788;49.930;8.660;2022-10-23T04:34:38;1.70;;;1.42;;
17340;SDS011;8788;49.930;8.660;2022-10-23T04:37:05;1.42;;;1.23;;
17340;SDS011;8788;49.930;8.660;2022-10-23T04:39:34;2.67;;;1.50;;
17340;SDS011;8788;49.930;8.660;2022-10-23T04:42:01;4.50;;;1.23;;
17340;SDS011;8788;49.930;8.660;2022-10-23T04:44:28;4.85;;;1.40;;
17340;SDS011;8788;49.930;8.660;2022-10-23T04:46:55;2.38;;;1.58;;
17340;SDS011;8788;49.930;8.660;2022-10-23T04:49:23;6.45;;;1.85;;
17340;SDS011;8788;49.930;8.660;2022-10-23T04:52:08;1.85;;;1.15;;
17340;SDS011;8788;49.930;8.660;2022-10-23T04:54:46;1.45;;;1.20;;
17340;SDS011;8788;49.930;8.660;2022-10-23T04:57:29;1.42;;;1.20;;
17340;SDS011;8788;49.930;8.660;2022-10-23T04:59:59;1.30;;;1.20;;
17340;SDS011;8788;49.930;8.660;2022-10-23T05:02:33;3.35;;;1.45;;
17340;SDS011;8788;49.930;8.660;2022-10-23T05:05:00;1.23;;;1.13;;
17340;SDS011;8788;49.930;8.660;2022-10-23T05:07:47;2.65;;;1.65;;
17340;SDS011;8788;49.930;8.660;2022-10-23T05:10:42;4.40;;;1.40;;
17340;SDS011;8788;49.930;8.660;2022-10-23T05:13:11;3.33;;;1.02;;
17340;SDS011;8788;49.930;8.660;2022-10-23T05:15:38;3.75;;;1.48;;
17340;SDS011;8788;49.930;8.660;2022-10-23T05:18:07;3.20;;;1.40;;
17340;SDS011;8788;49.930;8.660;2022-10-23T05:20:38;1.92;;;1.40;;
17340;SDS011;8788;49.930;8.660;2022-10-23T05:23:09;3.00;;;1.17;;
17340;SDS011;8788;49.930;8.660;2022-10-23T05:25:41;2.13;;;1.20;;
17340;SDS011;8788;49.930;8.660;2022-10-23T05:28:14;6.70;;;1.40;;
17340;SDS011;8788;49.930;8.660;2022-10-23T05:30:42;1.75;;;1.40;;
17340;SDS011;8788;49.930;8.660;2022-10-23T05:33:09;2.13;;;1.50;;
17340;SDS011;8788;49.930;8.660;2022-10-23T05:35:39;5.03;;;1.67;;
17340;SDS011;8788;49.930;8.660;2022-10-23T05:38:10;3.17;;;1.33;;
17340;SDS011;8788;49.930;8.660;2022-10-23T05:40:39;3.55;;;1.52;;
17340;SDS011;8788;49.930;8.660;2022-10-23T05:43:13;4.55;;;1.23;;
17340;SDS011;8788;49.930;8.660;2022-10-23T05:45:58;2.30;;;1.20;;
17340;SDS011;8788;49.930;8.660;2022-10-23T05:48:48;2.45;;;1.30;;
17340;SDS011;8788;49.930;8.660;2022-10-23T05:51:35;8.63;;;1.60;;
17340;SDS011;8788;49.930;8.660;2022-10-23T05:54:20;4.38;;;1.10;;
17340;SDS011;8788;49.930;8.660;2022-10-23T05:57:07;1.98;;;1.13;;
17340;SDS011;8788;49.930;8.660;2022-10-23T05:59:49;1.30;;;1.13;;
17340;SDS011;8788;49.930;8.660;2022-10-23T06:02:25;4.43;;;1.33;;
17340;SDS011;8788;49.930;8.660;2022-10-23T06:04:58;1.20;;;1.10;;
17340;SDS011;8788;49.930;8.660;2022-10-23T06:07:55;6.07;;;1.30;;
17340;SDS011;8788;49.930;8.660;2022-10-23T06:10:23;3.42;;;1.50;;
17340;SDS011;8788;49.930;8.660;2022-10-23T06:12:51;1.20;;;1.10;;
17340;SDS011;8788;49.930;8.660;2022-10-23T06:15:20;4.88;;;1.33;;
17340;SDS011;8788;49.930;8.660;2022-10-23T06:17:59;2.65;;;1.20;;
17340;SDS011;8788;49.930;8.660;2022-10-23T06:20:27;3.00;;;1.20;;
17340;SDS011;8788;49.930;8.660;2022-10-23T06:23:04;2.88;;;1.08;;
17340;SDS011;8788;49.930;8.660;2022-10-23T06:25:55;5.78;;;1.75;;
17340;SDS011;8788;49.930;8.660;2022-10-23T06:28:33;2.00;;;1.08;;
17340;SDS011;8788;49.930;8.660;2022-10-23T06:31:04;1.10;;;1.00;;
17340;SDS011;8788;49.930;8.660;2022-10-23T06:33:32;3.63;;;1.35;;
17340;SDS011;8788;49.930;8.660;2022-10-23T06:36:02;1.30;;;1.20;;
17340;SDS011;8788;49.930;8.660;2022-10-23T06:38:31;7.35;;;1.65;;
17340;SDS011;8788;49.930;8.660;2022-10-23T06:41:02;2.20;;;1.15;;
17340;SDS011;8788;49.930;8.660;2022-10-23T06:43:34;2.17;;;1.65;;
17340;SDS011;8788;49.930;8.660;2022-10-23T06:46:15;3.08;;;1.60;;
17340;SDS011;8788;49.930;8.660;2022-10-23T06:49:02;6.15;;;1.67;;
17340;SDS011;8788;49.930;8.660;2022-10-23T06:51:34;3.33;;;1.40;;
17340;SDS011;8788;49.930;8.660;2022-10-23T06:54:02;4.93;;;1.23;;
17340;SDS011;8788;49.930;8.660;2022-10-23T06:56:48;2.63;;;1.38;;
17340;SDS011;8788;49.930;8.660;2022-10-23T06:59:30;1.55;;;1.40;;
17340;SDS011;8788;49.930;8.660;2022-10-23T07:01:59;4.25;;;1.30;;
17340;SDS011;8788;49.930;8.660;2022-10-23T07:04:26;4.93;;;1.27;;
17340;SDS011;8788;49.930;8.660;2022-10-23T07:06:54;1.77;;;1.40;;
17340;SDS011;8788;49.930;8.660;2022-10-23T07:09:27;3.28;;;1.60;;
17340;SDS011;8788;49.930;8.660;2022-10-23T07:11:54;1.55;;;1.45;;
17340;SDS011;8788;49.930;8.660;2022-10-23T07:14:38;2.83;;;1.58;;
17340;SDS011;8788;49.930;8.660;2022-10-23T07:17:06;4.82;;;1.55;;
17340;SDS011;8788;49.930;8.660;2022-10-23T07:19:33;2.15;;;1.27;;
17340;SDS011;8788;49.930;8.660;2022-10-23T07:22:07;1.50;;;1.27;;
17340;SDS011;8788;49.930;8.660;2022-10-23T07:24:57;1.85;;;1.42;;
17340;SDS011;8788;49.930;8.660;2022-10-23T07:27:30;1.52;;;1.42;;
17340;SDS011;8788;49.930;8.660;2022-10-23T07:30:00;2.75;;;1.60;;
17340;SDS011;8788;49.930;8.660;2022-10-23T07:32:32;5.55;;;2.45;;
17340;SDS011;8788;49.930;8.660;2022-10-23T07:35:09;4.30;;;1.60;;
17340;SDS011;8788;49.930;8.660;2022-10-23T07:37:41;2.35;;;1.77;;
17340;SDS011;8788;49.930;8.660;2022-10-23T07:40:08;3.47;;;1.80;;
17340;SDS011;8788;49.930;8.660;2022-10-23T07:42:42;6.28;;;2.03;;
17340;SDS011;8788;49.930;8.660;2022-10-23T07:45:09;4.68;;;1.80;;
17340;SDS011;8788;49.930;8.660;2022-10-23T07:47:41;2.70;;;1.40;;
17340;SDS011;8788;49.930;8.660;2022-10-23T07:50:11;2.88;;;1.45;;
17340;SDS011;8788;49.930;8.660;2022-10-23T07:52:38;4.18;;;2.30;;
17340;SDS011;8788;49.930;8.660;2022-10-23T07:55:10;7.15;;;2.72;;
17340;SDS011;8788;49.930;8.660;2022-10-23T07:57:44;5.00;;;2.97;;
17340;SDS011;8788;49.930;8.660;2022-10-23T08:00:52;3.63;;;2.75;;
17340;SDS011;8788;49.930;8.660;2022-10-23T08:03:30;3.00;;;2.08;;
17340;SDS011;8788;49.930;8.660;2022-10-23T08:06:00;1.83;;;1.52;;
17340;SDS011;8788;49.930;8.660;2022-10-23T08:08:27;3.63;;;2.08;;
17340;SDS011;8788;49.930;8.660;2022-10-23T08:11:00;1.35;;;1.25;;
17340;SDS011;8788;49.930;8.660;2022-10-23T08:13:33;1.40;;;1.27;;
17340;SDS011;8788;49.930;8.660;2022-10-23T08:16:03;4.78;;;1.23;;
17340;SDS011;8788;49.930;8.660;2022-10-23T08:18:52;1.17;;;1.05;;
17340;SDS011;8788;49.930;8.660;2022-10-23T08:21:19;4.50;;;1.50;;
17340;SDS011;8788;49.930;8.660;2022-10-23T08:23:48;1.52;;;0.95;;
17340;SDS011;8788;49.930;8.660;2022-10-23T08:26:15;2.88;;;1.30;;
17340;SDS011;8788;49.930;8.660;2022-10-23T08:28:42;3.72;;;1.45;;
17340;SDS011;8788;49.930;8.660;2022-10-23T08:31:10;1.38;;;1.15;;
17340;SDS011;8788;49.930;8.660;2022-10-23T08:33:41;0.85;;;0.75;;
17340;SDS011;8788;49.930;8.660;2022-10-23T08:36:16;2.47;;;1.40;;
17340;SDS011;8788;49.930;8.660;2022-10-23T08:38:44;1.88;;;1.40;;
17340;SDS011;8788;49.930;8.660;2022-10-23T08:41:18;2.25;;;1.00;;
17340;SDS011;8788;49.930;8.660;2022-10-23T08:43:56;4.45;;;1.10;;
17340;SDS011;8788;49.930;8.660;2022-10-23T08:46:36;2.55;;;1.10;;
17340;SDS011;8788;49.930;8.660;2022-10-23T08:49:19;2.03;;;1.00;;
17340;SDS011;8788;49.930;8.660;2022-10-23T08:52:04;1.80;;;1.05;;
17340;SDS011;8788;49.930;8.660;2022-10-23T08:54:39;4.65;;;1.00;;
17340;SDS011;8788;49.930;8.660;2022-10-23T08:57:13;5.07;;;1.45;;
17340;SDS011;8788;49.930;8.660;2022-10-23T08:59:43;1.15;;;0.93;;
17340;SDS011;8788;49.930;8.660;2022-10-23T09:02:15;1.98;;;1.08;;
17340;SDS011;8788;49.930;8.660;2022-10-23T09:04:47;0.88;;;0.88;;
17340;SDS011;8788;49.930;8.660;2022-10-23T09:07:20;0.70;;;0.70;;
17340;SDS011;8788;49.930;8.660;2022-10-23T09:10:00;0.88;;;0.80;;
17340;SDS011;8788;49.930;8.660;2022-10-23T09:12:56;1.23;;;1.13;;
17340;SDS011;8788;49.930;8.660;2022-10-23T09:15:28;2.20;;;1.00;;
17340;SDS011;8788;49.930;8.660;2022-10-23T09:18:04;5.78;;;1.10;;
17340;SDS011;8788;49.930;8.660;2022-10-23T09:20:38;1.60;;;1.50;;
17340;SDS011;8788;49.930;8.660;2022-10-23T09:23:11;3.20;;;1.20;;
17340;SDS011;8788;49.930;8.660;2022-10-23T09:25:41;3.83;;;1.40;;
17340;SDS011;8788;49.930;8.660;2022-10-23T09:28:12;2.83;;;0.93;;
17340;SDS011;8788;49.930;8.660;2022-10-23T09:30:44;30.35;;;2.17;;
17340;SDS011;8788;49.930;8.660;2022-10-23T09:33:12;2.13;;;1.08;;
17340;SDS011;8788;49.930;8.660;2022-10-23T09:35:50;2.50;;;1.27;;
17340;SDS011;8788;49.930;8.660;2022-10-23T09:38:24;3.63;;;1.25;;
17340;SDS011;8788;49.930;8.660;2022-10-23T09:40:54;3.78;;;1.08;;
17340;SDS011;8788;49.930;8.660;2022-10-23T09:43:22;1.65;;;1.30;;
17340;SDS011;8788;49.930;8.660;2022-10-23T09:45:56;1.38;;;0.93;;
17340;SDS011;8788;49.930;8.660;2022-10-23T09:48:25;2.22;;;0.80;;
17340;SDS011;8788;49.930;8.660;2022-10-23T09:50:53;1.30;;;1.20;;
17340;SDS011;8788;49.930;8.660;2022-10-23T09:53:28;1.40;;;1.00;;
17340;SDS011;8788;49.930;8.660;2022-10-23T09:55:58;1.17;;;1.05;;
17340;SDS011;8788;49.930;8.660;2022-10-23T09:58:29;1.15;;;0.98;;
17340;SDS011;8788;49.930;8.660;2022-10-23T10:00:59;1.10;;;1.00;;
17340;SDS011;8788;49.930;8.660;2022-10-23T10:03:50;1.13;;;0.90;;
17340;SDS011;8788;49.930;8.660;2022-10-23T10:06:23;2.90;;;1.38;;
17340;SDS011;8788;49.930;8.660;2022-10-23T10:08:53;2.47;;;1.25;;
17340;SDS011;8788;49.930;8.660;2022-10-23T10:11:24;3.88;;;1.35;;
17340;SDS011;8788;49.930;8.660;2022-10-23T10:13:59;1.65;;;1.20;;
17340;SDS011;8788;49.930;8.660;2022-10-23T10:16:49;1.63;;;1.50;;
17340;SDS011;8788;49.930;8.660;2022-10-23T10:19:32;1.42;;;1.13;;
17340;SDS011;8788;49.930;8.660;2022-10-23T10:22:23;1.73;;;0.90;;
17340;SDS011;8788;49.930;8.660;2022-10-23T10:25:00;4.53;;;0.90;;
17340;SDS011;8788;49.930;8.660;2022-10-23T10:27:36;1.10;;;1.02;;
17340;SDS011;8788;49.930;8.660;2022-10-23T10:30:12;3.15;;;1.17;;
17340;SDS011;8788;49.930;8.660;2022-10-23T10:32:43;2.90;;;0.65;;
17340;SDS011;8788;49.930;8.660;2022-10-23T10:35:27;1.23;;;1.10;;
17340;SDS011;8788;49.930;8.660;2022-10-23T10:38:19;1.05;;;1.00;;
17340;SDS011;8788;49.930;8.660;2022-10-23T10:41:03;2.78;;;0.80;;
17340;SDS011;8788;49.930;8.660;2022-10-23T10:43:50;2.45;;;1.00;;
17340;SDS011;8788;49.930;8.660;2022-10-23T10:46:26;4.10;;;0.98;;
17340;SDS011;8788;49.930;8.660;2022-10-23T10:49:00;4.45;;;1.02;;
17340;SDS011;8788;49.930;8.660;2022-10-23T10:51:36;2.90;;;0.88;;
17340;SDS011;8788;49.930;8.660;2022-10-23T10:54:16;3.03;;;1.23;;
17340;SDS011;8788;49.930;8.660;2022-10-23T10:56:51;1.60;;;0.73;;
17340;SDS011;8788;49.930;8.660;2022-10-23T10:59:20;2.67;;;0.88;;
17340;SDS011;8788;49.930;8.660;2022-10-23T11:01:51;1.55;;;1.05;;
17340;SDS011;8788;49.930;8.660;2022-10-23T11:04:25;1.08;;;0.85;;
17340;SDS011;8788;49.930;8.660;2022-10-23T11:06:59;2.65;;;0.90;;
17340;SDS011;8788;49.930;8.660;2022-10-23T11:09:32;1.40;;;0.77;;
17340;SDS011;8788;49.930;8.660;2022-10-23T11:12:01;1.90;;;0.90;;
17340;SDS011;8788;49.930;8.660;2022-10-23T11:14:30;1.05;;;0.98;;
17340;SDS011;8788;49.930;8.660;2022-10-23T11:16:59;1.10;;;0.93;;
17340;SDS011;8788;49.930;8.660;2022-10-23T11:19:31;0.95;;;0.77;;
17340;SDS011;8788;49.930;8.660;2022-10-23T11:22:03;1.33;;;0.70;;
17340;SDS011;8788;49.930;8.660;2022-10-23T11:27:54;1.20;;;1.10;;
17340;SDS011;8788;49.930;8.660;2022-10-23T11:30:34;2.55;;;1.20;;
17340;SDS011;8788;49.930;8.660;2022-10-23T11:33:20;1.00;;;0.90;;
17340;SDS011;8788;49.930;8.660;2022-10-23T11:36:11;1.35;;;1.25;;
17340;SDS011;8788;49.930;8.660;2022-10-23T11:38:42;2.25;;;1.60;;
17340;SDS011;8788;49.930;8.660;2022-10-23T11:41:18;1.25;;;1.10;;
17340;SDS011;8788;49.930;8.660;2022-10-23T11:43:49;1.45;;;1.10;;
17340;SDS011;8788;49.930;8.660;2022-10-23T11:46:29;1.80;;;0.85;;
17340;SDS011;8788;49.930;8.660;2022-10-23T11:48:57;1.10;;;1.00;;
17340;SDS011;8788;49.930;8.660;2022-10-23T11:51:27;1.38;;;0.98;;
17340;SDS011;8788;49.930;8.660;2022-10-23T11:54:04;2.88;;;0.85;;
17340;SDS011;8788;49.930;8.660;2022-10-23T11:56:33;2.13;;;1.00;;
17340;SDS011;8788;49.930;8.660;2022-10-23T11:59:16;1.10;;;1.00;;
17340;SDS011;8788;49.930;8.660;2022-10-23T12:01:48;1.08;;;0.98;;
17340;SDS011;8788;49.930;8.660;2022-10-23T12:04:19;1.27;;;0.88;;
17340;SDS011;8788;49.930;8.660;2022-10-23T12:06:51;2.00;;;0.80;;
17340;SDS011;8788;49.930;8.660;2022-10-23T12:09:22;1.20;;;0.98;;
17340;SDS011;8788;49.930;8.660;2022-10-23T12:12:03;1.55;;;0.77;;
17340;SDS011;8788;49.930;8.660;2022-10-23T12:14:43;1.83;;;0.88;;
17340;SDS011;8788;49.930;8.660;2022-10-23T12:17:19;0.85;;;0.80;;
17340;SDS011;8788;49.930;8.660;2022-10-23T12:20:00;2.60;;;1.02;;
17340;SDS011;8788;49.930;8.660;2022-10-23T12:22:39;1.17;;;0.95;;
17340;SDS011;8788;49.930;8.660;2022-10-23T12:25:13;0.80;;;0.80;;
17340;SDS011;8788;49.930;8.660;2022-10-23T12:27:45;2.42;;;0.95;;
17340;SDS011;8788;49.930;8.660;2022-10-23T12:30:20;1.45;;;0.82;;
17340;SDS011;8788;49.930;8.660;2022-10-23T12:32:56;2.33;;;0.98;;
17340;SDS011;8788;49.930;8.660;2022-10-23T12:38:42;2.42;;;0.90;;
17340;SDS011;8788;49.930;8.660;2022-10-23T12:41:12;1.92;;;0.65;;
17340;SDS011;8788;49.930;8.660;2022-10-23T12:43:44;1.38;;;1.05;;
17340;SDS011;8788;49.930;8.660;2022-10-23T12:46:26;0.73;;;0.73;;
17340;SDS011;8788;49.930;8.660;2022-10-23T12:48:57;1.33;;;0.77;;
17340;SDS011;8788;49.930;8.660;2022-10-23T12:51:26;0.77;;;0.77;;
17340;SDS011;8788;49.930;8.660;2022-10-23T12:53:54;1.10;;;0.90;;
17340;SDS011;8788;49.930;8.660;2022-10-23T12:56:21;2.78;;;0.82;;
17340;SDS011;8788;49.930;8.660;2022-10-23T12:58:51;1.17;;;1.05;;
17340;SDS011;8788;49.930;8.660;2022-10-23T13:01:21;1.25;;;1.00;;
17340;SDS011;8788;49.930;8.660;2022-10-23T13:03:52;0.90;;;0.70;;
17340;SDS011;8788;49.930;8.660;2022-10-23T13:06:23;3.08;;;0.93;;
17340;SDS011;8788;49.930;8.660;2022-10-23T13:08:50;1.40;;;0.80;;
17340;SDS011;8788;49.930;8.660;2022-10-23T13:11:34;1.40;;;0.80;;
17340;SDS011;8788;49.930;8.660;2022-10-23T13:14:09;0.70;;;0.70;;
17340;SDS011;8788;49.930;8.660;2022-10-23T13:16:37;3.30;;;0.98;;
17340;SDS011;8788;49.930;8.660;2022-10-23T13:19:06;2.28;;;1.10;;
17340;SDS011;8788;49.930;8.660;2022-10-23T13:21:47;1.25;;;0.82;;
17340;SDS011;8788;49.930;8.660;2022-10-23T13:24:15;3.95;;;0.82;;
17340;SDS011;8788;49.930;8.660;2022-10-23T13:26:46;2.17;;;0.90;;
17340;SDS011;8788;49.930;8.660;2022-10-23T13:29:16;1.13;;;1.00;;
17340;SDS011;8788;49.930;8.660;2022-10-23T13:31:45;1.00;;;0.90;;
17340;SDS011;8788;49.930;8.660;2022-10-23T13:34:24;1.10;;;1.00;;
17340;SDS011;8788;49.930;8.660;2022-10-23T13:37:00;1.08;;;0.98;;
17340;SDS011;8788;49.930;8.660;2022-10-23T13:39:29;1.00;;;0.90;;
17340;SDS011;8788;49.930;8.660;2022-10-23T13:42:09;0.95;;;0.85;;
17340;SDS011;8788;49.930;8.660;2022-10-23T13:44:37;1.00;;;0.90;;
17340;SDS011;8788;49.930;8.660;2022-10-23T13:47:05;2.75;;;1.30;;
17340;SDS011;8788;49.930;8.660;2022-10-23T13:49:37;1.50;;;0.88;;
17340;SDS011;8788;49.930;8.660;2022-10-23T13:52:07;1.27;;;1.10;;
17340;SDS011;8788;49.930;8.660;2022-10-23T13:54:37;1.60;;;1.50;;
17340;SDS011;8788;49.930;8.660;2022-10-23T13:57:05;3.97;;;2.15;;
17340;SDS011;8788;49.930;8.660;2022-10-23T13:59:37;6.15;;;1.15;;
17340;SDS011;8788;49.930;8.660;2022-10-23T14:02:05;1.60;;;1.23;;
17340;SDS011;8788;49.930;8.660;2022-10-23T14:04:44;1.50;;;1.17;;
17340;SDS011;8788;49.930;8.660;2022-10-23T14:07:11;1.02;;;0.90;;
17340;SDS011;8788;49.930;8.660;2022-10-23T14:09:38;4.00;;;1.10;;
17340;SDS011;8788;49.930;8.660;2022-10-23T14:12:06;1.55;;;1.23;;
17340;SDS011;8788;49.930;8.660;2022-10-23T14:14:33;1.77;;;1.17;;
17340;SDS011;8788;49.930;8.660;2022-10-23T14:17:00;2.08;;;0.77;;
17340;SDS011;8788;49.930;8.660;2022-10-23T14:19:27;1.35;;;1.10;;
17340;SDS011;8788;49.930;8.660;2022-10-23T14:21:55;1.30;;;1.00;;
17340;SDS011;8788;49.930;8.660;2022-10-23T14:24:22;2.10;;;1.10;;
17340;SDS011;8788;49.930;8.660;2022-10-23T14:26:50;1.95;;;1.45;;
17340;SDS011;8788;49.930;8.660;2022-10-23T14:29:17;4.82;;;1.15;;
17340;SDS011;8788;49.930;8.660;2022-10-23T14:31:44;1.63;;;1.05;;
17340;SDS011;8788;49.930;8.660;2022-10-23T14:34:11;1.08;;;0.98;;
17340;SDS011;8788;49.930;8.660;2022-10-23T14:36:38;2.00;;;1.05;;
17340;SDS011;8788;49.930;8.660;2022-10-23T14:39:06;0.98;;;0.60;;
17340;SDS011;8788;49.930;8.660;2022-10-23T14:41:33;1.33;;;1.23;;
17340;SDS011;8788;49.930;8.660;2022-10-23T14:44:01;4.03;;;1.10;;
17340;SDS011;8788;49.930;8.660;2022-10-23T14:46:28;2.60;;;1.30;;
17340;SDS011;8788;49.930;8.660;2022-10-23T14:48:55;0.80;;;0.80;;
17340;SDS011;8788;49.930;8.660;2022-10-23T14:51:23;2.20;;;1.10;;
17340;SDS011;8788;49.930;8.660;2022-10-23T14:53:53;0.90;;;0.90;;
17340;SDS011;8788;49.930;8.660;2022-10-23T14:56:25;0.80;;;0.80;;
17340;SDS011;8788;49.930;8.660;2022-10-23T14:58:52;1.85;;;1.08;;
17340;SDS011;8788;49.930;8.660;2022-10-23T15:01:19;3.08;;;1.20;;
17340;SDS011;8788;49.930;8.660;2022-10-23T15:03:46;1.40;;;1.30;;
17340;SDS011;8788;49.930;8.660;2022-10-23T15:06:18;1.20;;;1.10;;
17340;SDS011;8788;49.930;8.660;2022-10-23T15:08:47;7.65;;;1.50;;
17340;SDS011;8788;49.930;8.660;2022-10-23T15:11:15;3.45;;;1.05;;
17340;SDS011;8788;49.930;8.660;2022-10-23T15:13:44;4.35;;;1.40;;
17340;SDS011;8788;49.930;8.660;2022-10-23T15:16:11;2.22;;;1.23;;
17340;SDS011;8788;49.930;8.660;2022-10-23T15:18:38;2.22;;;1.80;;
17340;SDS011;8788;49.930;8.660;2022-10-23T15:21:05;2.67;;;1.80;;
17340;SDS011;8788;49.930;8.660;2022-10-23T15:23:34;3.78;;;1.88;;
17340;SDS011;8788;49.930;8.660;2022-10-23T15:26:04;1.65;;;1.55;;
17340;SDS011;8788;49.930;8.660;2022-10-23T15:28:32;1.30;;;1.20;;
17340;SDS011;8788;49.930;8.660;2022-10-23T15:31:01;2.15;;;1.65;;
17340;SDS011;8788;49.930;8.660;2022-10-23T15:33:28;1.33;;;1.10;;
17340;SDS011;8788;49.930;8.660;2022-10-23T15:35:56;3.20;;;1.45;;
17340;SDS011;8788;49.930;8.660;2022-10-23T15:38:23;1.20;;;1.15;;
17340;SDS011;8788;49.930;8.660;2022-10-23T15:40:50;2.97;;;1.20;;
17340;SDS011;8788;49.930;8.660;2022-10-23T15:43:23;3.92;;;1.23;;
17340;SDS011;8788;49.930;8.660;2022-10-23T15:45:50;6.57;;;1.50;;
17340;SDS011;8788;49.930;8.660;2022-10-23T15:48:19;3.33;;;1.33;;
17340;SDS011;8788;49.930;8.660;2022-10-23T15:50:46;5.60;;;2.60;;
17340;SDS011;8788;49.930;8.660;2022-10-23T15:53:13;5.63;;;2.72;;
17340;SDS011;8788;49.930;8.660;2022-10-23T15:55:40;5.07;;;3.17;;
17340;SDS011;8788;49.930;8.660;2022-10-23T15:58:07;5.82;;;2.90;;
17340;SDS011;8788;49.930;8.660;2022-10-23T16:00:35;2.85;;;2.55;;
17340;SDS011;8788;49.930;8.660;2022-10-23T16:03:03;5.70;;;2.30;;
17340;SDS011;8788;49.930;8.660;2022-10-23T16:05:32;3.42;;;3.08;;
17340;SDS011;8788;49.930;8.660;2022-10-23T16:07:59;4.30;;;2.65;;
17340;SDS011;8788;49.930;8.660;2022-10-23T16:10:26;4.53;;;2.10;;
17340;SDS011;8788;49.930;8.660;2022-10-23T16:12:53;5.25;;;2.53;;
17340;SDS011;8788;49.930;8.660;2022-10-23T16:15:20;3.17;;;1.70;;
17340;SDS011;8788;49.930;8.660;2022-10-23T16:17:47;1.52;;;1.42;;
17340;SDS011;8788;49.930;8.660;2022-10-23T16:20:14;3.40;;;1.95;;
17340;SDS011;8788;49.930;8.660;2022-10-23T16:22:43;2.00;;;1.48;;
17340;SDS011;8788;49.930;8.660;2022-10-23T16:25:10;1.45;;;1.35;;
17340;SDS011;8788;49.930;8.660;2022-10-23T16:27:37;2.47;;;1.35;;
17340;SDS011;8788;49.930;8.660;2022-10-23T16:30:05;3.15;;;2.08;;
17340;SDS011;8788;49.930;8.660;2022-10-23T16:32:33;1.27;;;1.20;;
17340;SDS011;8788;49.930;8.660;2022-10-23T16:35:01;1.63;;;1.52;;
17340;SDS011;8788;49.930;8.660;2022-10-23T16:37:38;3.78;;;1.33;;
17340;SDS011;8788;49.930;8.660;2022-10-23T16:40:12;3.92;;;1.40;;
17340;SDS011;8788;49.930;8.660;2022-10-23T16:42:58;2.28;;;1.50;;
17340;SDS011;8788;49.930;8.660;2022-10-23T16:45:39;2.35;;;2.15;;
17340;SDS011;8788;49.930;8.660;2022-10-23T16:48:06;4.63;;;2.70;;
17340;SDS011;8788;49.930;8.660;2022-10-23T16:50:33;3.03;;;2.60;;
17340;SDS011;8788;49.930;8.660;2022-10-23T16:53:04;6.78;;;2.13;;
17340;SDS011;8788;49.930;8.660;2022-10-23T16:55:32;3.17;;;2.15;;
17340;SDS011;8788;49.930;8.660;2022-10-23T16:57:59;2.78;;;2.30;;
17340;SDS011;8788;49.930;8.660;2022-10-23T17:00:26;6.53;;;2.80;;
17340;SDS011;8788;49.930;8.660;2022-10-23T17:02:59;3.80;;;2.85;;
17340;SDS011;8788;49.930;8.660;2022-10-23T17:05:27;4.68;;;3.05;;
17340;SDS011;8788;49.930;8.660;2022-10-23T17:07:57;3.55;;;2.80;;
17340;SDS011;8788;49.930;8.660;2022-10-23T17:10:24;4.05;;;3.00;;
17340;SDS011;8788;49.930;8.660;2022-10-23T17:12:53;3.50;;;2.20;;
17340;SDS011;8788;49.930;8.660;2022-10-23T17:15:20;4.75;;;1.88;;
17340;SDS011;8788;49.930;8.660;2022-10-23T17:17:48;3.22;;;2.20;;
17340;SDS011;8788;49.930;8.660;2022-10-23T17:20:15;8.70;;;2.28;;
17340;SDS011;8788;49.930;8.660;2022-10-23T17:22:42;3.13;;;2.20;;
17340;SDS011;8788;49.930;8.660;2022-10-23T17:25:09;4.05;;;2.75;;
17340;SDS011;8788;49.930;8.660;2022-10-23T17:27:36;3.22;;;1.48;;
17340;SDS011;8788;49.930;8.660;2022-10-23T17:30:05;7.38;;;1.75;;
17340;SDS011;8788;49.930;8.660;2022-10-23T17:32:33;4.80;;;1.55;;
17340;SDS011;8788;49.930;8.660;2022-10-23T17:35:02;2.25;;;1.75;;
17340;SDS011;8788;49.930;8.660;2022-10-23T17:37:30;2.60;;;1.88;;
17340;SDS011;8788;49.930;8.660;2022-10-23T17:39:57;6.03;;;2.25;;
17340;SDS011;8788;49.930;8.660;2022-10-23T17:42:26;7.63;;;3.55;;
17340;SDS011;8788;49.930;8.660;2022-10-23T17:44:54;5.47;;;3.80;;
17340;SDS011;8788;49.930;8.660;2022-10-23T17:47:22;4.38;;;2.92;;
17340;SDS011;8788;49.930;8.660;2022-10-23T17:49:49;5.22;;;2.88;;
17340;SDS011;8788;49.930;8.660;2022-10-23T17:52:16;3.97;;;3.58;;
17340;SDS011;8788;49.930;8.660;2022-10-23T17:54:44;10.13;;;3.03;;
17340;SDS011;8788;49.930;8.660;2022-10-23T17:57:11;6.47;;;3.38;;
17340;SDS011;8788;49.930;8.660;2022-10-23T17:59:38;4.38;;;3.42;;
17340;SDS011;8788;49.930;8.660;2022-10-23T18:02:05;5.22;;;2.90;;
17340;SDS011;8788;49.930;8.660;2022-10-23T18:04:33;3.85;;;2.97;;
17340;SDS011;8788;49.930;8.660;2022-10-23T18:07:01;5.38;;;2.65;;
17340;SDS011;8788;49.930;8.660;2022-10-23T18:09:28;6.13;;;3.30;;
17340;SDS011;8788;49.930;8.660;2022-10-23T18:11:55;5.50;;;3.22;;
17340;SDS011;8788;49.930;8.660;2022-10-23T18:14:22;3.78;;;2.25;;
17340;SDS011;8788;49.930;8.660;2022-10-23T18:16:49;4.40;;;2.60;;
17340;SDS011;8788;49.930;8.660;2022-10-23T18:19:16;6.15;;;3.17;;
17340;SDS011;8788;49.930;8.660;2022-10-23T18:21:45;6.40;;;2.25;;
17340;SDS011;8788;49.930;8.660;2022-10-23T18:24:13;7.38;;;2.28;;
17340;SDS011;8788;49.930;8.660;2022-10-23T18:26:41;4.80;;;2.17;;
17340;SDS011;8788;49.930;8.660;2022-10-23T18:29:10;8.35;;;2.38;;
17340;SDS011;8788;49.930;8.660;2022-10-23T18:31:38;4.72;;;2.53;;
17340;SDS011;8788;49.930;8.660;2022-10-23T18:34:07;7.22;;;2.42;;
17340;SDS011;8788;49.930;8.660;2022-10-23T18:36:38;8.88;;;2.28;;
17340;SDS011;8788;49.930;8.660;2022-10-23T18:39:11;5.97;;;2.50;;
17340;SDS011;8788;49.930;8.660;2022-10-23T18:41:40;5.80;;;2.70;;
17340;SDS011;8788;49.930;8.660;2022-10-23T18:44:09;4.80;;;1.90;;
17340;SDS011;8788;49.930;8.660;2022-10-23T18:46:39;10.73;;;2.38;;
17340;SDS011;8788;49.930;8.660;2022-10-23T18:49:06;7.88;;;1.92;;
17340;SDS011;8788;49.930;8.660;2022-10-23T18:51:34;4.43;;;2.10;;
17340;SDS011;8788;49.930;8.660;2022-10-23T18:54:03;3.53;;;2.40;;
17340;SDS011;8788;49.930;8.660;2022-10-23T18:56:33;5.45;;;2.00;;
17340;SDS011;8788;49.930;8.660;2022-10-23T18:59:01;8.23;;;2.50;;
17340;SDS011;8788;49.930;8.660;2022-10-23T19:01:29;5.25;;;2.08;;
17340;SDS011;8788;49.930;8.660;2022-10-23T19:03:57;6.38;;;2.40;;
17340;SDS011;8788;49.930;8.660;2022-10-23T19:06:25;10.23;;;3.05;;
17340;SDS011;8788;49.930;8.660;2022-10-23T19:08:53;5.57;;;2.65;;
17340;SDS011;8788;49.930;8.660;2022-10-23T19:11:21;5.53;;;2.53;;
17340;SDS011;8788;49.930;8.660;2022-10-23T19:13:51;7.55;;;2.67;;
17340;SDS011;8788;49.930;8.660;2022-10-23T19:16:20;7.28;;;3.05;;
17340;SDS011;8788;49.930;8.660;2022-10-23T19:18:50;6.32;;;3.20;;
17340;SDS011;8788;49.930;8.660;2022-10-23T19:21:21;5.05;;;2.50;;
17340;SDS011;8788;49.930;8.660;2022-10-23T19:23:55;7.30;;;2.70;;
17340;SDS011;8788;49.930;8.660;2022-10-23T19:26:24;7.15;;;2.63;;
17340;SDS011;8788;49.930;8.660;2022-10-23T19:28:54;6.55;;;2.88;;
17340;SDS011;8788;49.930;8.660;2022-10-23T19:31:22;5.78;;;2.72;;
17340;SDS011;8788;49.930;8.660;2022-10-23T19:33:50;7.88;;;2.75;;
17340;SDS011;8788;49.930;8.660;2022-10-23T19:36:17;7.85;;;2.65;;
17340;SDS011;8788;49.930;8.660;2022-10-23T19:38:44;8.18;;;2.85;;